Time;durP1;ratioP1;P1;durP2;ratioP2;P2;SDS_P1;SDS_P2;PMS_P1;PMS_P2;Temp;Humidity;BMP_temperature;BMP_pressure;BME280_temperature;BME280_humidity;BME280_pressure;Samples;Min_cycle;Max_cycle;Signal;HPM_P1;HPM_P2
2023/02/08 00:01:20;;;;;;;6.80;4.43;;;;;;;;;;5049992;28;20460;-71
2023/02/08 00:03:47;;;;;;;8.70;5.67;;;;;;;;;;5050774;28;20448;-70
2023/02/08 00:06:15;;;;;;;6.00;2.20;;;;;;;;;;5050199;28;20452;-68
2023/02/08 00:08:42;;;;;;;6.50;2.87;;;;;;;;;;5050789;28;20476;-71
2023/02/08 00:11:10;;;;;;;3.53;3.23;;;;;;;;;;5051323;28;20448;-71
2023/02/08 00:13:40;;;;;;;7.43;3.03;;;;;;;;;;5051157;28;20477;-71
2023/02/08 00:16:07;;;;;;;2.60;2.40;;;;;;;;;;5060985;28;20518;-70
2023/02/08 00:18:35;;;;;;;3.53;3.23;;;;;;;;;;5049811;28;20829;-71
2023/02/08 00:21:02;;;;;;;5.00;3.60;;;;;;;;;;5051112;28;20450;-71
2023/02/08 00:23:29;;;;;;;3.23;2.93;;;;;;;;;;5049097;28;20453;-71
2023/02/08 00:25:56;;;;;;;3.63;3.10;;;;;;;;;;5049969;28;20460;-71
2023/02/08 00:28:23;;;;;;;6.97;4.17;;;;;;;;;;5050316;28;20813;-71
2023/02/08 00:30:52;;;;;;;9.20;5.60;;;;;;;;;;5051216;28;20458;-71
2023/02/08 00:33:19;;;;;;;4.93;3.73;;;;;;;;;;5049952;28;20461;-71
2023/02/08 00:35:46;;;;;;;3.80;3.30;;;;;;;;;;5050523;28;20460;-70
2023/02/08 00:38:13;;;;;;;2.90;2.67;;;;;;;;;;5049509;28;20480;-67
2023/02/08 00:40:40;;;;;;;7.30;2.97;;;;;;;;;;5050108;28;20450;-71
2023/02/08 00:43:08;;;;;;;9.60;2.77;;;;;;;;;;5050038;28;20796;-72
2023/02/08 00:45:35;;;;;;;6.20;2.90;;;;;;;;;;5049338;28;20458;-71
2023/02/08 00:48:03;;;;;;;3.00;2.23;;;;;;;;;;5050326;28;20463;-71
2023/02/08 00:50:30;;;;;;;3.60;3.13;;;;;;;;;;5049244;28;20455;-71
2023/02/08 00:52:59;;;;;;;7.00;3.67;;;;;;;;;;5050069;28;20967;-71
2023/02/08 00:55:26;;;;;;;4.40;3.47;;;;;;;;;;5049140;28;20512;-71
2023/02/08 00:57:53;;;;;;;5.53;3.63;;;;;;;;;;5050321;28;20500;-71
2023/02/08 01:00:21;;;;;;;4.73;4.20;;;;;;;;;;5049964;28;20458;-71
2023/02/08 01:02:48;;;;;;;4.50;3.00;;;;;;;;;;5050484;28;20457;-70
2023/02/08 01:05:16;;;;;;;6.10;3.40;;;;;;;;;;5049387;28;20448;-71
2023/02/08 01:07:43;;;;;;;5.37;4.90;;;;;;;;;;5050293;28;20462;-69
2023/02/08 01:10:11;;;;;;;4.20;2.73;;;;;;;;;;5050623;28;20547;-71
2023/02/08 01:12:39;;;;;;;4.93;2.60;;;;;;;;;;5050720;28;20959;-71
2023/02/08 01:15:06;;;;;;;6.07;4.53;;;;;;;;;;5050287;28;20451;-71
2023/02/08 01:17:33;;;;;;;4.27;3.43;;;;;;;;;;5049682;28;20464;-71
2023/02/08 01:20:00;;;;;;;6.00;4.20;;;;;;;;;;5050612;28;20475;-71
2023/02/08 01:22:30;;;;;;;3.47;3.17;;;;;;;;;;5049725;28;20443;-71
2023/02/08 01:24:57;;;;;;;7.30;4.83;;;;;;;;;;5050040;28;20459;-70
2023/02/08 01:27:24;;;;;;;4.27;2.70;;;;;;;;;;5049594;28;20444;-71
2023/02/08 01:29:51;;;;;;;4.13;2.93;;;;;;;;;;5050528;28;20454;-71
2023/02/08 01:32:18;;;;;;;7.83;3.93;;;;;;;;;;5049770;28;20447;-71
2023/02/08 01:34:45;;;;;;;2.20;2.10;;;;;;;;;;5050014;28;20451;-70
2023/02/08 01:37:13;;;;;;;4.80;2.60;;;;;;;;;;5053543;28;20915;-69
2023/02/08 01:39:41;;;;;;;5.07;4.37;;;;;;;;;;5053505;28;20487;-71
2023/02/08 01:42:10;;;;;;;8.60;3.90;;;;;;;;;;5040240;28;20452;-71
2023/02/08 01:44:56;;;;;;;5.33;4.13;;;;;;;;;;5052805;28;20540;-71
2023/02/08 01:47:23;;;;;;;4.90;3.07;;;;;;;;;;5049510;28;20448;-71
2023/02/08 01:49:51;;;;;;;5.90;3.67;;;;;;;;;;5053218;28;20459;-72
2023/02/08 01:52:19;;;;;;;6.90;3.87;;;;;;;;;;5051910;28;20452;-70
2023/02/08 01:54:50;;;;;;;6.10;4.00;;;;;;;;;;5052609;28;20444;-71
2023/02/08 01:57:17;;;;;;;4.43;4.03;;;;;;;;;;5052521;28;20446;-68
2023/02/08 01:59:46;;;;;;;6.73;2.80;;;;;;;;;;5052304;28;20483;-71
2023/02/08 02:02:16;;;;;;;5.10;4.10;;;;;;;;;;5052637;28;20813;-68
2023/02/08 02:04:43;;;;;;;3.13;2.93;;;;;;;;;;5052235;28;20436;-71
2023/02/08 02:07:10;;;;;;;3.10;2.53;;;;;;;;;;5053048;28;20447;-72
2023/02/08 02:09:40;;;;;;;2.67;2.00;;;;;;;;;;5039773;28;20476;-72
2023/02/08 02:12:09;;;;;;;5.80;3.80;;;;;;;;;;5053084;28;20452;-71
2023/02/08 02:14:37;;;;;;;3.07;2.67;;;;;;;;;;5052651;28;20451;-72
2023/02/08 02:17:04;;;;;;;4.30;4.00;;;;;;;;;;5053025;28;20440;-72
2023/02/08 02:19:38;;;;;;;5.30;2.30;;;;;;;;;;5052215;28;20602;-71
2023/02/08 02:22:12;;;;;;;5.43;3.73;;;;;;;;;;5053196;28;20451;-72
2023/02/08 02:24:49;;;;;;;1.83;1.70;;;;;;;;;;5052515;28;20923;-71
2023/02/08 02:27:30;;;;;;;2.87;2.50;;;;;;;;;;5052229;28;20789;-70
2023/02/08 02:30:18;;;;;;;7.13;4.40;;;;;;;;;;5053076;28;20446;-72
2023/02/08 02:32:56;;;;;;;3.40;2.67;;;;;;;;;;5053124;28;20797;-72
2023/02/08 02:35:27;;;;;;;3.77;3.40;;;;;;;;;;5051581;28;20448;-71
2023/02/08 02:37:59;;;;;;;5.97;3.67;;;;;;;;;;5052247;28;20808;-72
2023/02/08 02:40:28;;;;;;;6.23;5.13;;;;;;;;;;5051554;28;20792;-71
2023/02/08 02:45:48;;;;;;;2.80;1.60;;;;;;;;;;5043324;28;20948;-71
2023/02/08 02:48:20;;;;;;;5.57;3.17;;;;;;;;;;5051951;28;20444;-68
2023/02/08 02:50:49;;;;;;;1.63;1.53;;;;;;;;;;5051766;28;20438;-72
2023/02/08 02:53:20;;;;;;;1.67;1.53;;;;;;;;;;5051531;28;20818;-68
2023/02/08 02:55:48;;;;;;;5.77;4.37;;;;;;;;;;5051525;28;20458;-72
2023/02/08 02:58:16;;;;;;;2.50;1.90;;;;;;;;;;5051513;28;20455;-68
2023/02/08 03:00:44;;;;;;;3.33;2.27;;;;;;;;;;5043680;28;20450;-71
2023/02/08 03:03:18;;;;;;;3.53;2.97;;;;;;;;;;5051661;28;20459;-72
2023/02/08 03:05:47;;;;;;;2.13;1.93;;;;;;;;;;5050906;28;20443;-72
2023/02/08 03:08:23;;;;;;;3.70;2.60;;;;;;;;;;5051347;28;20542;-72
2023/02/08 03:10:59;;;;;;;2.70;2.50;;;;;;;;;;5051456;28;20447;-72
2023/02/08 03:13:27;;;;;;;3.13;2.93;;;;;;;;;;5051404;28;20447;-73
2023/02/08 03:16:01;;;;;;;2.67;2.47;;;;;;;;;;5051092;28;20965;-72
2023/02/08 03:18:32;;;;;;;6.57;4.33;;;;;;;;;;5051364;28;20466;-74
2023/02/08 03:21:03;;;;;;;2.40;2.30;;;;;;;;;;5051377;28;20465;-72
2023/02/08 03:23:31;;;;;;;1.37;1.27;;;;;;;;;;5051115;28;20431;-72
2023/02/08 03:26:03;;;;;;;3.20;2.90;;;;;;;;;;5051082;28;20458;-72
2023/02/08 03:28:36;;;;;;;4.00;2.63;;;;;;;;;;5050372;28;20497;-73
2023/02/08 03:31:06;;;;;;;4.13;3.10;;;;;;;;;;5051630;28;20474;-72
2023/02/08 03:33:35;;;;;;;4.43;4.13;;;;;;;;;;5050934;28;20779;-74
2023/02/08 03:36:06;;;;;;;2.40;2.20;;;;;;;;;;5050985;28;20446;-73
2023/02/08 03:38:35;;;;;;;5.80;3.17;;;;;;;;;;5050277;28;20465;-73
2023/02/08 03:41:04;;;;;;;2.07;1.87;;;;;;;;;;5050630;28;20458;-74
2023/02/08 03:43:34;;;;;;;1.80;1.70;;;;;;;;;;5049869;28;20451;-73
2023/02/08 03:46:04;;;;;;;3.37;3.03;;;;;;;;;;5050480;28;20465;-73
2023/02/08 03:48:32;;;;;;;4.60;2.47;;;;;;;;;;5050057;28;20446;-72
2023/02/08 03:51:01;;;;;;;2.63;1.70;;;;;;;;;;5050896;28;20446;-72
2023/02/08 03:53:31;;;;;;;4.87;4.37;;;;;;;;;;5050043;28;20454;-72
2023/02/08 03:56:00;;;;;;;2.77;2.23;;;;;;;;;;5050621;28;20446;-71
2023/02/08 03:58:31;;;;;;;2.83;2.63;;;;;;;;;;5048903;28;20446;-71
2023/02/08 04:01:03;;;;;;;9.60;3.93;;;;;;;;;;5050968;28;20461;-72
2023/02/08 04:03:31;;;;;;;3.27;2.33;;;;;;;;;;5050107;28;20446;-72
2023/02/08 04:05:58;;;;;;;2.97;2.33;;;;;;;;;;5050289;28;20461;-72
2023/02/08 04:08:26;;;;;;;2.43;2.23;;;;;;;;;;5050379;28;20474;-71
2023/02/08 04:10:54;;;;;;;4.00;3.60;;;;;;;;;;5050752;28;20443;-72
2023/02/08 04:13:21;;;;;;;3.07;1.90;;;;;;;;;;5050559;28;20458;-71
2023/02/08 04:15:48;;;;;;;3.70;1.73;;;;;;;;;;5050666;28;20454;-72
2023/02/08 04:18:15;;;;;;;3.70;3.17;;;;;;;;;;5050112;28;20450;-68
2023/02/08 04:20:42;;;;;;;3.10;2.80;;;;;;;;;;5050494;28;20482;-69
2023/02/08 04:23:09;;;;;;;3.07;2.77;;;;;;;;;;5051018;28;20457;-70
2023/02/08 04:25:37;;;;;;;2.40;2.20;;;;;;;;;;5049443;28;20457;-71
2023/02/08 04:28:05;;;;;;;3.33;1.53;;;;;;;;;;5055373;28;20926;-71
2023/02/08 04:30:32;;;;;;;6.60;3.00;;;;;;;;;;5051390;28;21345;-71
2023/02/08 04:32:59;;;;;;;2.30;2.20;;;;;;;;;;5050579;28;20450;-71
2023/02/08 04:35:27;;;;;;;3.50;2.50;;;;;;;;;;5049241;28;20458;-72
2023/02/08 04:37:54;;;;;;;10.27;3.53;;;;;;;;;;5050036;28;20947;-72
2023/02/08 04:40:21;;;;;;;5.50;1.47;;;;;;;;;;5049627;28;20489;-71
2023/02/08 04:42:48;;;;;;;2.13;2.03;;;;;;;;;;5050636;28;20457;-71
2023/02/08 04:45:16;;;;;;;6.67;3.07;;;;;;;;;;5049366;28;20450;-67
2023/02/08 04:47:43;;;;;;;3.40;2.77;;;;;;;;;;5050502;28;20450;-69
2023/02/08 04:50:10;;;;;;;2.07;1.97;;;;;;;;;;5050335;28;20454;-70
2023/02/08 04:52:38;;;;;;;4.80;3.50;;;;;;;;;;5049744;28;20446;-71
2023/02/08 04:55:05;;;;;;;2.17;1.97;;;;;;;;;;5049553;28;20443;-72
2023/02/08 04:57:32;;;;;;;3.40;3.10;;;;;;;;;;5049651;28;20449;-71
2023/02/08 04:59:59;;;;;;;2.87;2.67;;;;;;;;;;5049419;28;20481;-71
2023/02/08 05:02:28;;;;;;;2.50;1.50;;;;;;;;;;5049580;28;20465;-70
2023/02/08 05:04:55;;;;;;;6.67;2.47;;;;;;;;;;5049514;28;20469;-71
2023/02/08 05:07:22;;;;;;;3.33;3.03;;;;;;;;;;5049490;28;20464;-72
2023/02/08 05:09:49;;;;;;;5.33;2.17;;;;;;;;;;5052020;28;20962;-71
2023/02/08 05:12:16;;;;;;;8.33;3.40;;;;;;;;;;5053592;28;20454;-72
2023/02/08 05:14:43;;;;;;;3.17;2.97;;;;;;;;;;5053979;28;20457;-71
2023/02/08 05:17:10;;;;;;;6.47;4.20;;;;;;;;;;5054435;28;20446;-71
2023/02/08 05:19:39;;;;;;;4.30;3.30;;;;;;;;;;5053874;28;20562;-71
2023/02/08 05:22:06;;;;;;;4.00;3.50;;;;;;;;;;5053423;28;20469;-72
2023/02/08 05:24:33;;;;;;;6.77;4.40;;;;;;;;;;5053132;28;20490;-71
2023/02/08 05:27:00;;;;;;;5.03;2.87;;;;;;;;;;5053846;28;20453;-71
2023/02/08 05:29:27;;;;;;;5.47;3.20;;;;;;;;;;5053542;28;20454;-72
2023/02/08 05:31:55;;;;;;;2.30;1.80;;;;;;;;;;5053340;28;20442;-72
2023/02/08 05:34:22;;;;;;;6.83;4.00;;;;;;;;;;5052406;28;20965;-72
2023/02/08 05:36:50;;;;;;;6.10;4.07;;;;;;;;;;5053784;28;20445;-72
2023/02/08 05:39:17;;;;;;;4.57;2.53;;;;;;;;;;5052481;28;20492;-67
2023/02/08 05:41:44;;;;;;;7.90;3.30;;;;;;;;;;5053446;28;20447;-70
2023/02/08 05:44:11;;;;;;;3.20;2.07;;;;;;;;;;5053622;28;20461;-71
2023/02/08 05:46:38;;;;;;;2.57;1.83;;;;;;;;;;5052587;28;20446;-72
2023/02/08 05:49:06;;;;;;;5.53;3.23;;;;;;;;;;5053309;28;20442;-71
2023/02/08 05:51:33;;;;;;;5.70;2.87;;;;;;;;;;5052221;28;20911;-72
2023/02/08 05:54:02;;;;;;;4.20;3.73;;;;;;;;;;5053160;28;20473;-72
2023/02/08 05:56:29;;;;;;;3.10;2.43;;;;;;;;;;5051890;28;20465;-71
2023/02/08 05:58:56;;;;;;;2.80;2.57;;;;;;;;;;5053167;28;20457;-71
2023/02/08 06:01:23;;;;;;;3.53;2.50;;;;;;;;;;5052153;28;20486;-71
2023/02/08 06:03:50;;;;;;;3.07;2.87;;;;;;;;;;5052951;28;20462;-71
2023/02/08 06:06:17;;;;;;;16.63;4.77;;;;;;;;;;5052233;28;20785;-68
2023/02/08 06:08:44;;;;;;;4.23;3.00;;;;;;;;;;5053512;28;20474;-71
2023/02/08 06:11:13;;;;;;;7.60;2.97;;;;;;;;;;5053164;28;20456;-73
2023/02/08 06:13:40;;;;;;;2.90;2.70;;;;;;;;;;5053325;28;20457;-72
2023/02/08 06:16:08;;;;;;;3.73;3.37;;;;;;;;;;5052752;28;20449;-72
2023/02/08 06:18:35;;;;;;;2.07;1.80;;;;;;;;;;5052304;28;20814;-72
2023/02/08 06:21:02;;;;;;;5.93;3.23;;;;;;;;;;5047986;28;20489;-73
2023/02/08 06:23:29;;;;;;;14.73;3.43;;;;;;;;;;5052205;28;20450;-71
2023/02/08 06:25:56;;;;;;;7.07;3.80;;;;;;;;;;5052321;28;20754;-72
2023/02/08 06:28:24;;;;;;;3.97;3.43;;;;;;;;;;5051870;28;20446;-71
2023/02/08 06:30:52;;;;;;;3.90;2.93;;;;;;;;;;5051911;28;20469;-72
2023/02/08 06:33:19;;;;;;;3.80;3.40;;;;;;;;;;5052299;28;20454;-72
2023/02/08 06:35:47;;;;;;;3.40;3.10;;;;;;;;;;5051021;28;20451;-71
2023/02/08 06:38:14;;;;;;;7.00;4.30;;;;;;;;;;5052359;28;20458;-68
2023/02/08 06:40:41;;;;;;;4.90;4.37;;;;;;;;;;5052180;28;20474;-74
2023/02/08 06:43:08;;;;;;;8.30;4.00;;;;;;;;;;5052641;28;20457;-70
2023/02/08 06:45:37;;;;;;;7.40;4.37;;;;;;;;;;5050941;28;20447;-70
2023/02/08 06:48:04;;;;;;;2.73;2.20;;;;;;;;;;5052424;28;20454;-70
2023/02/08 06:50:31;;;;;;;2.20;2.00;;;;;;;;;;5051572;28;20451;-70
2023/02/08 06:52:58;;;;;;;3.40;3.10;;;;;;;;;;5052069;28;20451;-71
2023/02/08 06:55:25;;;;;;;4.80;2.83;;;;;;;;;;5051135;28;20447;-78
2023/02/08 06:57:54;;;;;;;7.33;3.70;;;;;;;;;;5052170;28;20450;-75
2023/02/08 07:00:21;;;;;;;4.90;3.20;;;;;;;;;;5050957;28;20473;-79
2023/02/08 07:02:50;;;;;;;3.07;2.50;;;;;;;;;;5051810;28;20461;-79
2023/02/08 07:05:17;;;;;;;2.80;2.53;;;;;;;;;;5050422;28;20450;-68
2023/02/08 07:07:44;;;;;;;6.67;3.60;;;;;;;;;;5051586;28;20457;-72
2023/02/08 07:10:11;;;;;;;8.50;3.83;;;;;;;;;;5052440;28;20482;-73
2023/02/08 07:12:38;;;;;;;2.57;2.37;;;;;;;;;;5051415;28;20507;-74
2023/02/08 07:15:05;;;;;;;4.50;3.00;;;;;;;;;;5050235;28;20442;-71
2023/02/08 07:17:33;;;;;;;7.10;3.60;;;;;;;;;;5051878;28;21096;-70
2023/02/08 07:20:01;;;;;;;5.90;4.93;;;;;;;;;;5050703;28;20474;-70
2023/02/08 07:22:28;;;;;;;4.60;3.10;;;;;;;;;;5050668;28;20817;-70
2023/02/08 07:24:55;;;;;;;5.10;4.50;;;;;;;;;;5051574;28;20450;-69
2023/02/08 07:27:22;;;;;;;3.07;2.83;;;;;;;;;;5050201;28;20521;-72
2023/02/08 07:29:49;;;;;;;2.90;2.70;;;;;;;;;;5050568;28;20453;-72
2023/02/08 07:32:16;;;;;;;4.40;4.07;;;;;;;;;;5050342;28;20450;-70
2023/02/08 07:34:45;;;;;;;2.83;2.23;;;;;;;;;;5050559;28;20977;-70
2023/02/08 07:37:13;;;;;;;6.20;4.83;;;;;;;;;;5051100;28;20454;-72
2023/02/08 07:39:40;;;;;;;9.20;3.37;;;;;;;;;;5050333;28;20525;-71
2023/02/08 07:42:08;;;;;;;4.97;4.23;;;;;;;;;;5050979;28;20454;-71
2023/02/08 07:44:37;;;;;;;6.73;4.57;;;;;;;;;;5049026;28;20443;-71
2023/02/08 07:47:04;;;;;;;8.80;6.33;;;;;;;;;;5050371;28;20450;-71
2023/02/08 07:49:31;;;;;;;6.40;3.40;;;;;;;;;;5049726;28;20446;-70
2023/02/08 07:51:59;;;;;;;5.60;2.50;;;;;;;;;;5049791;28;20455;-70
2023/02/08 07:54:27;;;;;;;4.97;3.50;;;;;;;;;;5049155;28;20451;-71
2023/02/08 07:56:54;;;;;;;4.30;3.17;;;;;;;;;;5050201;28;20442;-71
2023/02/08 07:59:22;;;;;;;5.30;3.63;;;;;;;;;;5049177;28;20450;-71
2023/02/08 08:01:49;;;;;;;5.87;4.33;;;;;;;;;;5050146;28;20482;-71
2023/02/08 08:04:16;;;;;;;5.70;3.70;;;;;;;;;;5050198;28;20447;-68
2023/02/08 08:06:45;;;;;;;4.30;3.90;;;;;;;;;;5050111;28;20451;-69
2023/02/08 08:09:14;;;;;;;11.63;4.20;;;;;;;;;;5050434;28;20801;-71
2023/02/08 08:11:42;;;;;;;6.20;4.20;;;;;;;;;;5051113;28;20486;-72
2023/02/08 08:14:10;;;;;;;6.53;3.20;;;;;;;;;;5050820;28;20534;-71
2023/02/08 08:16:37;;;;;;;5.37;4.87;;;;;;;;;;5049715;28;20453;-71
2023/02/08 08:19:04;;;;;;;6.73;5.90;;;;;;;;;;5050248;28;20442;-70
2023/02/08 08:21:32;;;;;;;5.07;4.00;;;;;;;;;;5049334;28;20984;-71
2023/02/08 08:23:59;;;;;;;12.77;6.70;;;;;;;;;;5050751;28;20456;-71
2023/02/08 08:26:26;;;;;;;9.40;6.00;;;;;;;;;;5049690;28;20448;-71
2023/02/08 08:28:54;;;;;;;7.33;4.73;;;;;;;;;;5049850;28;20453;-70
2023/02/08 08:31:22;;;;;;;8.00;7.20;;;;;;;;;;5050137;28;20449;-71
2023/02/08 08:33:50;;;;;;;7.87;4.60;;;;;;;;;;5050830;28;20457;-70
2023/02/08 08:36:17;;;;;;;6.67;4.60;;;;;;;;;;5049078;28;20503;-71
2023/02/08 08:38:44;;;;;;;8.13;5.33;;;;;;;;;;5049176;28;20536;-70
2023/02/08 08:41:13;;;;;;;10.33;5.70;;;;;;;;;;5049469;28;20482;-71
2023/02/08 08:43:40;;;;;;;9.87;6.50;;;;;;;;;;5049478;28;20444;-70
2023/02/08 08:46:09;;;;;;;10.20;4.43;;;;;;;;;;5053385;28;20446;-70
2023/02/08 08:48:37;;;;;;;6.43;3.80;;;;;;;;;;5053431;28;20553;-70
2023/02/08 08:51:04;;;;;;;14.37;7.10;;;;;;;;;;5054255;28;20482;-70
2023/02/08 08:53:31;;;;;;;5.33;3.33;;;;;;;;;;5053396;28;20970;-71
2023/02/08 08:55:58;;;;;;;8.93;4.43;;;;;;;;;;5053863;28;20448;-71
2023/02/08 08:58:25;;;;;;;11.20;4.63;;;;;;;;;;5053141;28;20453;-71
2023/02/08 09:00:52;;;;;;;7.77;4.10;;;;;;;;;;5053784;28;20485;-71
2023/02/08 09:03:21;;;;;;;6.00;4.20;;;;;;;;;;5053464;28;20880;-70
2023/02/08 09:05:48;;;;;;;4.53;3.47;;;;;;;;;;5053224;28;20457;-71
2023/02/08 09:08:15;;;;;;;9.60;3.93;;;;;;;;;;5052751;28;20455;-68
2023/02/08 09:10:42;;;;;;;5.90;4.10;;;;;;;;;;5053838;28;20438;-71
2023/02/08 09:13:09;;;;;;;7.80;3.57;;;;;;;;;;5052587;28;20455;-71
2023/02/08 09:15:39;;;;;;;5.90;3.70;;;;;;;;;;5051825;28;20452;-68
2023/02/08 09:18:06;;;;;;;4.70;3.40;;;;;;;;;;5054492;28;20795;-67
2023/02/08 09:20:37;;;;;;;11.67;4.00;;;;;;;;;;5052774;28;20484;-67
2023/02/08 09:23:05;;;;;;;11.30;5.10;;;;;;;;;;5054330;28;20464;-67
2023/02/08 09:25:32;;;;;;;7.00;3.80;;;;;;;;;;5053274;28;20451;-68
2023/02/08 09:27:59;;;;;;;8.70;3.93;;;;;;;;;;5052612;28;20480;-69
2023/02/08 09:30:26;;;;;;;8.33;5.23;;;;;;;;;;5052660;28;20941;-68
2023/02/08 09:32:53;;;;;;;7.33;5.57;;;;;;;;;;5053358;28;20469;-69
2023/02/08 09:35:20;;;;;;;8.50;4.50;;;;;;;;;;5053037;28;20454;-69
2023/02/08 09:37:53;;;;;;;8.43;3.90;;;;;;;;;;5051218;28;20956;-69
2023/02/08 09:40:22;;;;;;;12.13;4.37;;;;;;;;;;5051577;28;20447;-68
2023/02/08 09:42:54;;;;;;;6.20;4.23;;;;;;;;;;5053252;28;20464;-70
2023/02/08 09:45:29;;;;;;;5.03;4.43;;;;;;;;;;5046059;28;20457;-68
2023/02/08 09:48:00;;;;;;;10.90;6.33;;;;;;;;;;5052484;28;20494;-68
2023/02/08 09:50:32;;;;;;;7.50;3.57;;;;;;;;;;5052158;28;20460;-68
2023/02/08 09:53:03;;;;;;;6.93;4.17;;;;;;;;;;5052710;28;20449;-68
2023/02/08 09:55:32;;;;;;;7.30;5.60;;;;;;;;;;5051285;28;20439;-70
2023/02/08 09:58:03;;;;;;;15.20;5.13;;;;;;;;;;5052167;28;20453;-69
2023/02/08 10:00:32;;;;;;;7.00;3.27;;;;;;;;;;5052123;28;20515;-68
2023/02/08 10:03:00;;;;;;;6.30;4.57;;;;;;;;;;5051674;28;20457;-70
2023/02/08 10:05:28;;;;;;;7.57;3.87;;;;;;;;;;5050689;28;20446;-69
2023/02/08 10:07:57;;;;;;;5.70;3.90;;;;;;;;;;5052238;28;20457;-68
2023/02/08 10:10:31;;;;;;;10.47;4.57;;;;;;;;;;5051748;28;20534;-68
2023/02/08 10:13:05;;;;;;;5.23;4.60;;;;;;;;;;5045284;28;20438;-68
2023/02/08 10:15:39;;;;;;;9.10;4.23;;;;;;;;;;5052106;28;20449;-69
2023/02/08 10:18:11;;;;;;;5.70;4.83;;;;;;;;;;5051971;28;20859;-69
2023/02/08 10:20:47;;;;;;;7.60;3.50;;;;;;;;;;5049853;28;20461;-69
2023/02/08 10:23:23;;;;;;;10.67;4.83;;;;;;;;;;5052060;28;20961;-68
2023/02/08 10:26:01;;;;;;;7.17;4.33;;;;;;;;;;5049503;28;20458;-68
2023/02/08 10:28:43;;;;;;;13.37;5.30;;;;;;;;;;5051181;28;20446;-69
2023/02/08 10:31:15;;;;;;;7.90;4.67;;;;;;;;;;5052190;28;20461;-69
2023/02/08 10:33:47;;;;;;;5.73;4.23;;;;;;;;;;5052698;28;20453;-69
2023/02/08 10:36:17;;;;;;;7.00;3.77;;;;;;;;;;5051239;28;20453;-70
2023/02/08 10:38:44;;;;;;;7.30;4.60;;;;;;;;;;5051495;28;20459;-67
2023/02/08 10:41:16;;;;;;;10.87;6.03;;;;;;;;;;5052206;28;20478;-70
2023/02/08 10:43:46;;;;;;;9.90;4.70;;;;;;;;;;5051120;28;20443;-69
2023/02/08 10:46:17;;;;;;;5.63;4.47;;;;;;;;;;5051478;28;20451;-66
2023/02/08 10:48:54;;;;;;;9.43;5.17;;;;;;;;;;5050669;28;20465;-69
2023/02/08 10:51:21;;;;;;;7.63;5.60;;;;;;;;;;5049759;28;20442;-67
2023/02/08 10:53:49;;;;;;;5.73;4.97;;;;;;;;;;5047776;28;20447;-70
2023/02/08 10:56:27;;;;;;;9.80;3.93;;;;;;;;;;5051449;28;20466;-66
2023/02/08 10:58:55;;;;;;;7.63;4.10;;;;;;;;;;5052541;28;20469;-69
2023/02/08 11:01:22;;;;;;;6.80;3.67;;;;;;;;;;5051025;28;20482;-68
2023/02/08 11:04:01;;;;;;;6.03;3.93;;;;;;;;;;5051930;28;20452;-68
2023/02/08 11:06:29;;;;;;;5.80;4.77;;;;;;;;;;5037779;28;20939;-68
2023/02/08 11:08:57;;;;;;;7.33;4.37;;;;;;;;;;5050188;28;20815;-69
2023/02/08 11:11:28;;;;;;;9.70;4.50;;;;;;;;;;5051200;28;20462;-68
2023/02/08 11:14:05;;;;;;;8.47;5.13;;;;;;;;;;5051652;28;20443;-69
2023/02/08 11:16:32;;;;;;;7.83;4.50;;;;;;;;;;5051329;28;21233;-69
2023/02/08 11:19:00;;;;;;;9.47;5.30;;;;;;;;;;5051402;28;20442;-69
2023/02/08 11:21:32;;;;;;;6.57;4.37;;;;;;;;;;5051239;28;20482;-69
2023/02/08 11:24:00;;;;;;;9.40;4.80;;;;;;;;;;5051831;28;20433;-69
2023/02/08 11:26:34;;;;;;;4.77;4.30;;;;;;;;;;5051246;28;20446;-69
2023/02/08 11:29:02;;;;;;;5.27;3.70;;;;;;;;;;5051588;28;20450;-69
2023/02/08 11:31:30;;;;;;;9.87;6.30;;;;;;;;;;5050793;28;20969;-69
2023/02/08 11:34:02;;;;;;;7.57;4.00;;;;;;;;;;5051609;28;20478;-69
2023/02/08 11:36:29;;;;;;;10.53;6.00;;;;;;;;;;5050611;28;20446;-69
2023/02/08 11:38:57;;;;;;;9.87;4.53;;;;;;;;;;5050835;28;20464;-69
2023/02/08 11:41:24;;;;;;;8.53;4.17;;;;;;;;;;5050747;28;20501;-69
2023/02/08 11:43:56;;;;;;;9.93;5.53;;;;;;;;;;5051366;28;20455;-69
2023/02/08 11:46:23;;;;;;;5.90;5.00;;;;;;;;;;5050680;28;20446;-68
2023/02/08 11:48:52;;;;;;;8.53;5.30;;;;;;;;;;5050969;28;20453;-68
2023/02/08 11:51:25;;;;;;;7.60;4.20;;;;;;;;;;5049895;28;20465;-69
2023/02/08 11:53:53;;;;;;;9.40;4.20;;;;;;;;;;5050692;28;20537;-68
2023/02/08 11:56:22;;;;;;;7.43;4.40;;;;;;;;;;5050137;28;20447;-69
2023/02/08 11:59:01;;;;;;;7.53;3.47;;;;;;;;;;5050379;28;20462;-69
2023/02/08 12:01:29;;;;;;;6.07;3.80;;;;;;;;;;5050144;28;20486;-69
2023/02/08 12:03:56;;;;;;;9.00;3.83;;;;;;;;;;5051054;28;20822;-69
2023/02/08 12:06:34;;;;;;;7.20;4.80;;;;;;;;;;5049882;28;20449;-69
2023/02/08 12:09:08;;;;;;;17.40;4.50;;;;;;;;;;5050788;28;20481;-69
2023/02/08 12:11:38;;;;;;;8.67;4.63;;;;;;;;;;5050641;28;20452;-69
2023/02/08 12:14:27;;;;;;;8.63;5.23;;;;;;;;;;5050908;28;20465;-69
2023/02/08 12:17:03;;;;;;;5.93;3.77;;;;;;;;;;5051388;28;20434;-69
2023/02/08 12:19:45;;;;;;;8.30;3.93;;;;;;;;;;5049483;28;20446;-69
2023/02/08 12:22:14;;;;;;;4.37;2.80;;;;;;;;;;5017721;28;20486;-69
2023/02/08 12:24:46;;;;;;;6.90;4.90;;;;;;;;;;5050375;28;20445;-69
2023/02/08 12:27:26;;;;;;;8.87;3.67;;;;;;;;;;5050227;28;20442;-67
2023/02/08 12:29:56;;;;;;;11.50;3.33;;;;;;;;;;5049702;28;20532;-68
2023/02/08 12:32:30;;;;;;;5.97;2.53;;;;;;;;;;5048947;28;20447;-69
2023/02/08 12:35:03;;;;;;;13.33;3.77;;;;;;;;;;5050458;28;20447;-69
2023/02/08 12:43:18;;;;;;;5.60;3.87;;;;;;;;;;5049169;28;21026;-67
2023/02/08 12:45:52;;;;;;;7.13;3.20;;;;;;;;;;5049793;28;20755;-68
2023/02/08 12:48:27;;;;;;;7.40;4.37;;;;;;;;;;5049271;28;20445;-69
2023/02/08 12:50:57;;;;;;;7.93;3.87;;;;;;;;;;5048383;28;20453;-68
2023/02/08 12:53:29;;;;;;;3.93;3.23;;;;;;;;;;5049282;28;20801;-68
2023/02/08 12:55:58;;;;;;;5.80;3.60;;;;;;;;;;5049904;28;20446;-68
2023/02/08 12:58:27;;;;;;;5.53;4.07;;;;;;;;;;5048795;28;20453;-70
2023/02/08 13:00:57;;;;;;;7.80;4.40;;;;;;;;;;5048926;28;20446;-70
2023/02/08 13:03:31;;;;;;;3.70;2.97;;;;;;;;;;5049151;28;20486;-69
2023/02/08 13:05:58;;;;;;;9.30;4.03;;;;;;;;;;5049723;28;20446;-69
2023/02/08 13:08:30;;;;;;;7.30;3.20;;;;;;;;;;5048028;28;20489;-70
2023/02/08 13:10:58;;;;;;;5.47;3.20;;;;;;;;;;5049797;28;20446;-69
2023/02/08 13:13:27;;;;;;;4.70;2.90;;;;;;;;;;5049683;28;20936;-69
2023/02/08 13:15:58;;;;;;;6.53;2.97;;;;;;;;;;5049580;28;20939;-69
2023/02/08 13:18:29;;;;;;;5.30;3.40;;;;;;;;;;5048705;28;20455;-70
2023/02/08 13:20:57;;;;;;;8.33;3.70;;;;;;;;;;5049718;28;20452;-69
2023/02/08 13:23:26;;;;;;;5.37;2.50;;;;;;;;;;5049030;28;20493;-70
2023/02/08 13:25:55;;;;;;;6.87;3.80;;;;;;;;;;5040834;28;20524;-69
2023/02/08 13:28:23;;;;;;;5.57;3.97;;;;;;;;;;5048483;28;20958;-69
2023/02/08 13:30:54;;;;;;;8.63;4.63;;;;;;;;;;5051517;28;20457;-70
2023/02/08 13:33:27;;;;;;;7.63;3.43;;;;;;;;;;5052372;28;20450;-70
2023/02/08 13:35:54;;;;;;;5.10;4.03;;;;;;;;;;5053053;28;20450;-69
2023/02/08 13:38:25;;;;;;;5.90;3.60;;;;;;;;;;5051408;28;20455;-70
2023/02/08 13:41:02;;;;;;;4.50;4.00;;;;;;;;;;5053716;28;20450;-70
2023/02/08 13:43:33;;;;;;;5.97;2.90;;;;;;;;;;5050959;28;20966;-69
2023/02/08 13:46:01;;;;;;;10.50;3.13;;;;;;;;;;5052319;28;20439;-70
2023/02/08 13:48:41;;;;;;;4.30;3.00;;;;;;;;;;5051334;28;20446;-69
2023/02/08 13:51:28;;;;;;;7.10;3.90;;;;;;;;;;5053711;28;20852;-69
2023/02/08 13:54:11;;;;;;;4.13;3.20;;;;;;;;;;5052913;28;20454;-70
2023/02/08 13:56:40;;;;;;;4.77;3.07;;;;;;;;;;5052096;28;20450;-70
2023/02/08 13:59:25;;;;;;;5.47;3.10;;;;;;;;;;5052281;28;20438;-70
2023/02/08 14:02:10;;;;;;;5.40;2.50;;;;;;;;;;5052399;28;20472;-70
2023/02/08 14:04:40;;;;;;;10.10;4.00;;;;;;;;;;5051901;28;20463;-70
2023/02/08 14:07:14;;;;;;;5.20;2.43;;;;;;;;;;5052481;28;20438;-70
2023/02/08 14:09:45;;;;;;;5.40;3.00;;;;;;;;;;5041696;28;20478;-69
2023/02/08 14:12:16;;;;;;;7.40;3.50;;;;;;;;;;5048382;28;20454;-68
2023/02/08 14:14:43;;;;;;;4.70;3.07;;;;;;;;;;5050886;28;20446;-68
2023/02/08 14:17:11;;;;;;;7.00;3.90;;;;;;;;;;5051091;28;20457;-69
2023/02/08 14:19:41;;;;;;;3.77;2.87;;;;;;;;;;5050213;28;20820;-69
2023/02/08 14:22:16;;;;;;;5.23;4.30;;;;;;;;;;5050440;28;21348;-69
2023/02/08 14:24:47;;;;;;;5.03;2.90;;;;;;;;;;5049844;28;20803;-68
2023/02/08 14:27:19;;;;;;;5.80;3.73;;;;;;;;;;5049747;28;20772;-69
2023/02/08 14:29:55;;;;;;;4.97;3.33;;;;;;;;;;5047864;28;20446;-69
2023/02/08 14:32:23;;;;;;;5.67;3.67;;;;;;;;;;5041015;28;20438;-69
2023/02/08 14:34:59;;;;;;;7.80;5.90;;;;;;;;;;5049854;28;20455;-69
2023/02/08 14:37:29;;;;;;;4.50;3.07;;;;;;;;;;5047498;28;20454;-69
2023/02/08 14:40:11;;;;;;;9.67;4.07;;;;;;;;;;5048766;28;20451;-69
2023/02/08 14:42:54;;;;;;;5.27;3.17;;;;;;;;;;5047872;28;20478;-69
2023/02/08 14:45:27;;;;;;;4.83;3.47;;;;;;;;;;5048548;28;20465;-69
2023/02/08 14:48:12;;;;;;;8.40;4.67;;;;;;;;;;5049201;28;20446;-69
2023/02/08 14:50:42;;;;;;;3.77;2.90;;;;;;;;;;5039315;28;20446;-69
2023/02/08 14:53:17;;;;;;;6.00;3.50;;;;;;;;;;5050262;28;20450;-69
2023/02/08 14:55:48;;;;;;;7.27;3.97;;;;;;;;;;5049555;28;20449;-69
2023/02/08 14:58:21;;;;;;;9.40;4.50;;;;;;;;;;5035886;28;20450;-67
2023/02/08 15:00:51;;;;;;;7.80;4.70;;;;;;;;;;5049226;28;21240;-69
2023/02/08 15:03:18;;;;;;;8.20;3.17;;;;;;;;;;5048288;28;20747;-68
2023/02/08 15:05:56;;;;;;;6.57;4.07;;;;;;;;;;5049098;28;20450;-68